Time;durP1;ratioP1;P1;durP2;ratioP2;P2;SDS_P1;SDS_P2;PMS_P1;PMS_P2;Temp;Humidity;BMP_temperature;BMP_pressure;BME280_temperature;BME280_humidity;BME280_pressure;Samples;Min_cycle;Max_cycle;Signal;HPM_P1;HPM_P2
2022/08/19 03:02:03;;;;;;;13.95;9.20;;;15.40;99.90;;;;;;5189476;23;20429;-86
2022/08/19 03:04:29;;;;;;;15.02;8.63;;;15.50;99.90;;;;;;4902433;29;20047;-84
2022/08/19 03:06:55;;;;;;;14.00;8.07;;;15.50;99.90;;;;;;4931619;29;20547;-85
2022/08/19 03:09:21;;;;;;;9.10;6.68;;;15.50;99.90;;;;;;4939039;29;20036;-85
2022/08/19 03:11:47;;;;;;;10.57;6.60;;;15.40;99.90;;;;;;4921395;29;20414;-86
2022/08/19 03:14:14;;;;;;;9.35;6.50;;;15.40;99.90;;;;;;4937995;29;20040;-87
2022/08/19 03:16:46;;;;;;;8.50;5.50;;;15.30;99.90;;;;;;4921192;29;20048;-87
2022/08/19 03:19:13;;;;;;;7.88;5.43;;;15.30;99.90;;;;;;4921063;29;20047;-87
2022/08/19 03:21:39;;;;;;;8.00;5.65;;;15.30;99.90;;;;;;4938049;29;20512;-85
2022/08/19 03:24:08;;;;;;;10.23;5.80;;;15.30;99.90;;;;;;4937995;29;20050;-86
2022/08/19 03:26:38;;;;;;;12.57;7.65;;;15.30;99.90;;;;;;4905114;29;20043;-86
2022/08/19 03:29:05;;;;;;;12.23;7.78;;;15.30;99.90;;;;;;4920453;29;20044;-85
2022/08/19 03:31:31;;;;;;;16.55;8.85;;;15.30;99.90;;;;;;4938096;29;20040;-87
2022/08/19 03:33:57;;;;;;;18.17;9.07;;;15.30;99.90;;;;;;4920563;29;20491;-87
2022/08/19 03:36:25;;;;;;;13.73;9.05;;;15.30;99.90;;;;;;4920629;29;20050;-86
2022/08/19 03:38:54;;;;;;;14.52;8.65;;;15.30;99.90;;;;;;4920465;29;20083;-85
2022/08/19 03:41:22;;;;;;;10.65;7.90;;;15.30;99.90;;;;;;4904897;29;20138;-86
2022/08/19 03:43:49;;;;;;;12.30;6.90;;;15.30;99.90;;;;;;4920184;29;20130;-86
2022/08/19 03:46:21;;;;;;;11.35;7.65;;;15.30;99.90;;;;;;4937970;29;20047;-86
2022/08/19 03:48:48;;;;;;;9.85;6.78;;;15.30;99.90;;;;;;4920325;29;20132;-86
2022/08/19 03:51:32;;;;;;;11.20;7.75;;;15.20;99.90;;;;;;4937435;29;20043;-85
2022/08/19 03:54:00;;;;;;;13.80;8.48;;;15.20;99.90;;;;;;4920133;29;20039;-85
2022/08/19 03:56:30;;;;;;;16.70;9.48;;;15.20;99.90;;;;;;4920467;29;20055;-83
2022/08/19 03:58:57;;;;;;;11.82;8.38;;;15.20;99.90;;;;;;4937408;29;20048;-85
2022/08/19 04:01:28;;;;;;;13.55;9.45;;;15.20;99.90;;;;;;4919844;29;20077;-84
2022/08/19 04:03:57;;;;;;;12.43;8.68;;;15.20;99.90;;;;;;4920472;29;20558;-84
2022/08/19 04:06:26;;;;;;;14.90;9.55;;;15.20;99.90;;;;;;4904450;29;20389;-87
2022/08/19 04:08:53;;;;;;;13.65;8.90;;;15.20;99.90;;;;;;4920246;29;20480;-85
2022/08/19 04:11:26;;;;;;;13.68;8.90;;;15.10;99.90;;;;;;4920168;29;20119;-87
2022/08/19 04:13:53;;;;;;;17.65;10.30;;;15.10;99.90;;;;;;4904227;29;20044;-84
2022/08/19 04:16:20;;;;;;;14.50;9.18;;;15.10;99.90;;;;;;4919680;29;20039;-85
2022/08/19 04:18:47;;;;;;;14.75;9.63;;;15.10;99.90;;;;;;4919660;29;20058;-86
2022/08/19 04:21:21;;;;;;;15.95;10.10;;;15.20;99.90;;;;;;4919925;29;20074;-85
2022/08/19 04:23:48;;;;;;;15.52;9.70;;;15.10;99.90;;;;;;4936878;29;20047;-83
2022/08/19 04:26:19;;;;;;;13.57;9.00;;;15.10;99.90;;;;;;4919502;29;20044;-87
2022/08/19 04:28:45;;;;;;;16.63;9.52;;;15.10;99.90;;;;;;4919969;29;20047;-86
2022/08/19 04:31:37;;;;;;;11.35;8.35;;;15.10;99.90;;;;;;4919534;29;20083;-85
2022/08/19 04:34:06;;;;;;;17.25;10.02;;;15.10;99.90;;;;;;4933622;29;20047;-86
2022/08/19 04:36:34;;;;;;;17.10;10.68;;;15.10;99.90;;;;;;4919466;29;20043;-87
2022/08/19 04:39:04;;;;;;;18.48;10.48;;;15.00;99.90;;;;;;4919549;29;20114;-87
2022/08/19 04:44:17;;;;;;;15.32;9.15;;;15.10;99.90;;;;;;4936641;29;20059;-86
2022/08/19 04:46:44;;;;;;;17.30;10.10;;;15.10;99.90;;;;;;4936622;29;20090;-85
2022/08/19 04:49:11;;;;;;;15.48;9.48;;;15.10;99.90;;;;;;4936378;29;20054;-86
2022/08/19 04:51:39;;;;;;;19.23;12.05;;;15.10;99.90;;;;;;4919184;29;20085;-86
2022/08/19 04:54:05;;;;;;;18.65;11.65;;;15.10;99.90;;;;;;4936238;29;20115;-86
2022/08/19 04:56:30;;;;;;;19.92;12.68;;;15.10;99.90;;;;;;4919308;29;20531;-87
2022/08/19 04:58:57;;;;;;;16.65;10.60;;;15.20;99.90;;;;;;4919073;29;20095;-88
2022/08/19 05:01:31;;;;;;;17.00;11.05;;;15.20;99.90;;;;;;4919003;29;20186;-87
2022/08/19 05:03:59;;;;;;;15.48;9.57;;;15.20;99.90;;;;;;4920070;29;20047;-86
2022/08/19 05:06:25;;;;;;;13.18;8.27;;;15.20;99.90;;;;;;4903178;29;20440;-87
2022/08/19 05:08:51;;;;;;;15.30;9.90;;;15.20;99.90;;;;;;4936057;29;20047;-78
2022/08/19 05:11:20;;;;;;;17.65;10.50;;;15.20;99.90;;;;;;4903873;29;20087;-88
2022/08/19 05:13:48;;;;;;;17.38;10.32;;;15.20;99.90;;;;;;4919230;29;20062;-83
2022/08/19 05:16:15;;;;;;;19.23;11.43;;;15.20;99.90;;;;;;4936250;29;20189;-83
2022/08/19 05:24:12;;;;;;;24.20;13.38;;;15.20;99.90;;;;;;4919043;29;20052;-87
2022/08/19 05:26:46;;;;;;;21.10;12.85;;;15.20;99.90;;;;;;4919140;29;20047;-85
2022/08/19 05:29:13;;;;;;;28.23;14.25;;;15.20;99.90;;;;;;4918850;29;20579;-85
2022/08/19 05:31:40;;;;;;;20.98;13.20;;;15.30;99.90;;;;;;4918696;29;20471;-85
2022/08/19 05:34:06;;;;;;;27.38;15.52;;;15.30;99.90;;;;;;4919146;29;20048;-87
2022/08/19 05:36:39;;;;;;;25.90;15.13;;;15.30;99.90;;;;;;4935887;29;20126;-85
2022/08/19 05:39:11;;;;;;;21.40;13.90;;;15.40;99.90;;;;;;4936402;29;20051;-86
2022/08/19 05:41:44;;;;;;;26.00;15.27;;;15.40;99.90;;;;;;4918956;29;20470;-85
2022/08/19 05:44:10;;;;;;;26.88;16.45;;;15.50;99.90;;;;;;4902949;29;20048;-86
2022/08/19 05:46:37;;;;;;;31.98;16.88;;;15.50;99.90;;;;;;4932972;29;20127;-84
2022/08/19 05:49:07;;;;;;;26.02;16.20;;;15.50;99.90;;;;;;4919423;29;20048;-83
2022/08/19 05:51:34;;;;;;;27.02;16.77;;;15.60;99.90;;;;;;4919170;29;20361;-84
2022/08/19 05:54:05;;;;;;;28.33;17.05;;;15.70;99.90;;;;;;4935665;29;20432;-84
2022/08/19 05:56:31;;;;;;;30.27;17.63;;;15.70;99.90;;;;;;4918887;29;20054;-85
2022/08/19 05:58:58;;;;;;;29.38;17.02;;;15.70;99.90;;;;;;4935860;29;20043;-85
2022/08/19 06:01:25;;;;;;;32.03;18.23;;;15.80;99.90;;;;;;4935776;29;20039;-86
2022/08/19 06:03:52;;;;;;;28.52;16.65;;;15.90;99.90;;;;;;4918656;29;20087;-84
2022/08/19 06:06:18;;;;;;;28.63;17.05;;;15.90;99.90;;;;;;4935857;29;20047;-87
2022/08/19 06:08:49;;;;;;;27.83;17.10;;;16.00;99.90;;;;;;4921732;29;20496;-85
2022/08/19 06:11:38;;;;;;;28.00;17.75;;;16.00;99.90;;;;;;4922372;29;20055;-84
2022/08/19 06:14:08;;;;;;;26.58;15.82;;;16.10;99.90;;;;;;4939657;29;20043;-84
2022/08/19 06:16:35;;;;;;;29.45;17.88;;;16.20;99.90;;;;;;4922305;29;20087;-85
2022/08/19 06:19:06;;;;;;;26.15;16.95;;;16.30;99.90;;;;;;4922191;29;20122;-85
2022/08/19 06:21:33;;;;;;;27.73;16.98;;;16.40;99.90;;;;;;4939263;29;20066;-85
2022/08/19 06:23:59;;;;;;;30.10;17.00;;;16.50;99.90;;;;;;4922156;29;20051;-85
2022/08/19 06:26:26;;;;;;;23.63;15.40;;;16.50;99.90;;;;;;4906025;29;20040;-86
2022/08/19 06:28:52;;;;;;;27.23;16.67;;;16.70;99.90;;;;;;4921599;29;20193;-85
2022/08/19 06:31:23;;;;;;;30.48;16.13;;;16.80;99.90;;;;;;4921915;29;20083;-85
2022/08/19 06:33:49;;;;;;;25.23;16.33;;;16.90;99.90;;;;;;4921671;29;20048;-86
2022/08/19 06:36:31;;;;;;;25.85;16.63;;;17.00;99.90;;;;;;4921603;29;20142;-86
2022/08/19 06:39:24;;;;;;;28.50;16.90;;;17.10;99.90;;;;;;4921434;29;20407;-87
2022/08/19 06:41:53;;;;;;;25.33;15.88;;;17.20;99.90;;;;;;4900074;29;20123;-86
2022/08/19 06:44:21;;;;;;;28.10;17.90;;;17.20;99.90;;;;;;4902469;29;20502;-84
2022/08/19 06:46:48;;;;;;;26.52;17.60;;;17.40;99.90;;;;;;4919606;29;20036;-83
2022/08/19 06:49:14;;;;;;;22.85;15.85;;;17.40;99.90;;;;;;4902454;29;20063;-83
2022/08/19 06:51:43;;;;;;;26.70;17.70;;;17.50;99.90;;;;;;4902348;29;20054;-82
2022/08/19 06:54:09;;;;;;;27.13;17.13;;;17.60;99.90;;;;;;4886694;29;20048;-84
2022/08/19 06:56:35;;;;;;;24.77;17.30;;;17.70;99.90;;;;;;4902261;29;20048;-82
2022/08/19 06:59:05;;;;;;;29.17;17.77;;;17.70;99.90;;;;;;4902164;29;20044;-84
2022/08/19 07:01:39;;;;;;;26.20;17.52;;;17.80;99.90;;;;;;4886634;29;20063;-84
2022/08/19 07:04:06;;;;;;;23.27;16.90;;;17.90;99.90;;;;;;4902406;29;20373;-84
2022/08/19 07:06:32;;;;;;;24.73;16.80;;;18.00;99.90;;;;;;4902280;29;20055;-83
2022/08/19 07:08:58;;;;;;;22.35;16.13;;;18.00;99.90;;;;;;4902615;29;20048;-82
2022/08/19 07:11:24;;;;;;;23.70;16.35;;;18.10;99.90;;;;;;4902057;29;20124;-85
2022/08/19 07:13:50;;;;;;;22.42;15.98;;;18.10;99.90;;;;;;4902420;29;20431;-81
2022/08/19 07:16:19;;;;;;;27.85;16.63;;;18.20;99.90;;;;;;4902619;29;20127;-82
2022/08/19 07:18:46;;;;;;;22.25;15.63;;;18.30;99.90;;;;;;4918838;29;20052;-83
2022/08/19 07:21:20;;;;;;;21.75;15.90;;;18.30;99.90;;;;;;4901821;29;20480;-84
2022/08/19 07:23:47;;;;;;;23.75;16.08;;;18.40;99.90;;;;;;4902326;29;20048;-81
2022/08/19 07:26:19;;;;;;;24.30;16.77;;;18.40;99.90;;;;;;4902308;29;20130;-84
2022/08/19 07:28:46;;;;;;;21.92;14.95;;;18.50;99.90;;;;;;4901688;29;20044;-84
2022/08/19 07:31:19;;;;;;;22.05;15.75;;;18.60;99.90;;;;;;4886136;29;20044;-84
2022/08/19 07:33:46;;;;;;;21.30;14.82;;;18.60;99.90;;;;;;4918765;29;20392;-82
2022/08/19 07:36:14;;;;;;;23.73;16.55;;;18.70;99.90;;;;;;4919146;29;20542;-84
2022/08/19 07:38:42;;;;;;;23.80;15.75;;;18.80;99.90;;;;;;4901995;29;20062;-85
2022/08/19 07:41:12;;;;;;;22.13;15.98;;;18.90;99.90;;;;;;4901942;29;20540;-83
2022/08/19 07:43:38;;;;;;;22.60;16.00;;;19.00;99.90;;;;;;4901587;29;20059;-84
2022/08/19 07:46:04;;;;;;;23.85;16.73;;;19.10;99.90;;;;;;4902189;29;20538;-85
2022/08/19 07:48:31;;;;;;;24.13;15.90;;;19.10;99.90;;;;;;4901573;29;20123;-82
2022/08/19 07:51:01;;;;;;;25.58;17.63;;;19.20;99.90;;;;;;4918484;29;20044;-83
2022/08/19 07:53:28;;;;;;;21.17;16.13;;;19.30;99.90;;;;;;4901767;29;20091;-84
2022/08/19 07:55:54;;;;;;;21.35;16.17;;;19.40;99.90;;;;;;4901727;29;20048;-84
2022/08/19 07:58:21;;;;;;;23.27;17.85;;;19.50;99.90;;;;;;4901530;29;20396;-83
2022/08/19 08:00:49;;;;;;;24.65;18.05;;;19.50;99.90;;;;;;4904372;29;20131;-84
2022/08/19 08:03:18;;;;;;;22.60;17.33;;;19.60;99.90;;;;;;4908534;29;20044;-79
2022/08/19 08:11:01;;;;;;;23.60;17.40;;;19.80;99.90;;;;;;4917704;29;20036;-84
2022/08/19 08:13:27;;;;;;;23.75;18.05;;;19.90;99.90;;;;;;4919658;29;20086;-81
2022/08/19 08:15:53;;;;;;;27.42;19.13;;;19.90;99.90;;;;;;4939048;29;20047;-84
2022/08/19 08:18:20;;;;;;;24.90;19.15;;;20.00;99.90;;;;;;4927503;29;20045;-86
2022/08/19 08:20:46;;;;;;;26.73;19.05;;;20.10;99.90;;;;;;4887728;29;20048;-85
2022/08/19 08:23:26;;;;;;;27.15;19.60;;;20.10;99.90;;;;;;4902757;29;20048;-83
2022/08/19 08:25:54;;;;;;;27.48;19.23;;;20.30;99.90;;;;;;4903103;29;20040;-85
2022/08/19 08:28:21;;;;;;;25.80;19.02;;;20.30;99.90;;;;;;4902385;29;20099;-84
2022/08/19 08:30:48;;;;;;;29.02;19.02;;;20.40;99.90;;;;;;4917942;29;20429;-85
2022/08/19 08:33:18;;;;;;;28.35;18.52;;;20.40;99.90;;;;;;4917738;29;20044;-84
2022/08/19 08:35:45;;;;;;;26.15;17.45;;;20.40;99.90;;;;;;4900774;29;20040;-83
2022/08/19 08:38:12;;;;;;;22.60;17.52;;;20.50;99.90;;;;;;4901437;29;20088;-84
2022/08/19 08:41:06;;;;;;;22.42;16.75;;;20.60;99.90;;;;;;4917723;29;20147;-85
2022/08/19 08:43:38;;;;;;;22.95;17.90;;;20.70;99.90;;;;;;4918161;29;20048;-84
2022/08/19 08:46:06;;;;;;;23.70;17.90;;;20.70;99.90;;;;;;4917833;29;20439;-83
2022/08/19 08:48:33;;;;;;;22.65;17.80;;;20.80;99.90;;;;;;4900634;29;20052;-86
2022/08/19 08:51:03;;;;;;;25.25;18.15;;;20.90;99.90;;;;;;4901439;29;20040;-87
2022/08/19 08:53:30;;;;;;;24.38;17.63;;;21.00;99.90;;;;;;4886342;29;20044;-76
2022/08/19 08:55:56;;;;;;;24.67;19.48;;;21.10;99.90;;;;;;4917996;29;20048;-83
2022/08/19 08:58:41;;;;;;;23.20;18.52;;;21.10;99.90;;;;;;4917579;29;20047;-86
2022/08/19 09:01:10;;;;;;;26.25;19.33;;;21.20;99.90;;;;;;4900516;29;20488;-86
2022/08/19 09:03:39;;;;;;;24.02;19.17;;;21.30;99.90;;;;;;4901395;29;20063;-84
2022/08/19 09:06:12;;;;;;;22.20;18.33;;;21.40;99.90;;;;;;4918000;29;20380;-84
2022/08/19 09:09:02;;;;;;;25.55;18.85;;;21.50;99.90;;;;;;4901689;29;20341;-86
2022/08/19 09:12:04;;;;;;;22.63;18.65;;;21.70;99.90;;;;;;4885435;29;20052;-84
2022/08/19 09:14:45;;;;;;;25.02;19.23;;;21.80;99.90;;;;;;4900796;29;20052;-86
2022/08/19 09:17:11;;;;;;;26.48;20.50;;;22.00;99.90;;;;;;4900562;29;20048;-87
2022/08/19 09:20:07;;;;;;;28.35;21.25;;;22.00;99.90;;;;;;4917489;29;20044;-85
2022/08/19 09:22:33;;;;;;;30.02;20.67;;;22.00;99.90;;;;;;4900586;29;20497;-84
2022/08/19 09:24:59;;;;;;;26.67;21.63;;;22.10;99.90;;;;;;4900872;29;20041;-86
2022/08/19 09:27:26;;;;;;;27.95;20.27;;;22.20;99.90;;;;;;4900698;29;20076;-86
2022/08/19 09:29:53;;;;;;;26.75;18.95;;;22.30;99.90;;;;;;4884974;29;20500;-85
2022/08/19 09:32:20;;;;;;;21.95;18.27;;;22.30;99.90;;;;;;4917366;29;20099;-83
2022/08/19 09:34:46;;;;;;;22.67;18.58;;;22.50;99.90;;;;;;4885605;29;20047;-86
2022/08/19 09:37:12;;;;;;;26.52;21.00;;;22.60;99.90;;;;;;4917868;29;20123;-85
2022/08/19 09:39:40;;;;;;;27.70;20.75;;;22.70;99.90;;;;;;4900905;29;20048;-86
2022/08/19 09:42:11;;;;;;;25.42;20.17;;;22.80;99.90;;;;;;4917781;29;20088;-85
2022/08/19 09:44:38;;;;;;;21.15;17.27;;;22.90;99.90;;;;;;4904744;29;20139;-85
2022/08/19 09:47:04;;;;;;;20.35;17.10;;;23.00;99.90;;;;;;4904680;29;20507;-85
2022/08/19 09:49:31;;;;;;;21.98;17.08;;;23.00;99.90;;;;;;4904277;29;20044;-88
2022/08/19 09:51:57;;;;;;;24.40;18.00;;;23.00;99.90;;;;;;4904300;29;20047;-87
2022/08/19 09:54:23;;;;;;;20.80;16.17;;;23.20;99.90;;;;;;4904221;29;20040;-83
2022/08/19 09:56:49;;;;;;;21.75;16.65;;;23.30;99.90;;;;;;4920977;29;20036;-87
2022/08/19 09:59:16;;;;;;;19.85;15.70;;;23.40;99.90;;;;;;4904548;29;20523;-86
2022/08/19 10:01:42;;;;;;;21.10;15.20;;;23.40;99.90;;;;;;4921676;29;20040;-87
2022/08/19 10:04:10;;;;;;;19.48;12.65;;;23.50;99.90;;;;;;4921240;29;20396;-87
2022/08/19 10:06:39;;;;;;;19.05;13.82;;;23.60;99.90;;;;;;4904291;29;20047;-85
2022/08/19 10:09:07;;;;;;;22.88;13.88;;;23.50;99.90;;;;;;4904194;29;20048;-86
2022/08/19 10:11:39;;;;;;;20.15;14.98;;;23.50;99.90;;;;;;4903805;29;20127;-87
2022/08/19 10:14:05;;;;;;;18.88;13.57;;;23.50;99.90;;;;;;4904489;29;20047;-83
2022/08/19 10:16:32;;;;;;;17.80;10.68;;;23.60;99.90;;;;;;4921076;29;20082;-86
2022/08/19 10:18:59;;;;;;;17.35;12.75;;;23.70;99.90;;;;;;4887987;29;20048;-86
2022/08/19 10:21:28;;;;;;;17.77;12.45;;;23.80;99.90;;;;;;4903315;29;20052;-86
2022/08/19 10:23:57;;;;;;;20.33;12.60;;;23.90;99.90;;;;;;4904270;29;20492;-86
2022/08/19 10:26:29;;;;;;;20.25;12.32;;;23.90;99.90;;;;;;4904264;29;20409;-87
2022/08/19 10:28:56;;;;;;;11.98;9.10;;;24.00;99.90;;;;;;4903448;29;20476;-87
2022/08/19 10:31:24;;;;;;;13.48;10.43;;;24.00;99.90;;;;;;4903785;29;20044;-87
2022/08/19 10:33:57;;;;;;;16.35;11.25;;;24.10;99.90;;;;;;4920591;29;20046;-84
2022/08/19 10:36:31;;;;;;;16.50;12.45;;;24.20;99.90;;;;;;4903844;29;20032;-85
2022/08/19 10:39:00;;;;;;;15.55;12.38;;;24.20;99.90;;;;;;4903733;29;20131;-84
2022/08/19 10:41:30;;;;;;;19.25;13.80;;;24.40;99.90;;;;;;4903792;29;20044;-86
2022/08/19 10:43:59;;;;;;;21.52;14.93;;;24.30;99.90;;;;;;4903856;29;20109;-86
2022/08/19 10:46:26;;;;;;;22.55;16.65;;;24.50;99.90;;;;;;4903431;29;20048;-83
2022/08/19 10:48:53;;;;;;;23.00;16.70;;;24.40;99.90;;;;;;4920481;29;20389;-87
2022/08/19 10:54:04;;;;;;;20.42;14.35;;;23.90;99.90;;;;;;4919726;29;20548;-86
2022/08/19 10:59:15;;;;;;;22.77;16.60;;;24.00;99.90;;;;;;4902499;29;20054;-68
2022/08/19 11:01:43;;;;;;;19.73;13.23;;;24.20;99.90;;;;;;4901983;29;20083;-71
2022/08/19 11:04:11;;;;;;;21.40;14.70;;;24.40;99.90;;;;;;4919538;29;20126;-73
2022/08/19 11:06:41;;;;;;;20.05;13.55;;;24.50;99.90;;;;;;4902453;29;20407;-73
2022/08/19 11:09:08;;;;;;;19.48;14.65;;;24.50;99.90;;;;;;4919317;29;20116;-74
2022/08/19 11:11:39;;;;;;;16.30;13.95;;;24.50;99.90;;;;;;4902170;29;20421;-74
2022/08/19 11:14:10;;;;;;;16.23;12.90;;;24.40;99.90;;;;;;4919179;29;20401;-77
2022/08/19 11:16:37;;;;;;;17.40;14.02;;;24.50;99.90;;;;;;4919138;29;20048;-83
2022/08/19 11:19:04;;;;;;;20.27;14.00;;;24.70;99.90;;;;;;4902438;29;20047;-85
2022/08/19 11:21:32;;;;;;;14.07;11.20;;;24.90;99.90;;;;;;4902292;29;20082;-83
2022/08/19 11:24:02;;;;;;;18.70;13.23;;;25.00;99.90;;;;;;4902744;29;20123;-84
2022/08/19 11:26:29;;;;;;;21.27;16.08;;;25.10;99.90;;;;;;4919472;29;20051;-85
2022/08/19 11:28:56;;;;;;;21.02;16.95;;;25.20;99.90;;;;;;4903173;29;20493;-85
2022/08/19 11:31:24;;;;;;;23.10;18.40;;;25.20;99.90;;;;;;4902235;29;20044;-84
2022/08/19 11:33:53;;;;;;;23.95;16.63;;;25.30;99.90;;;;;;4902589;29;20052;-85
2022/08/19 11:36:20;;;;;;;25.40;19.70;;;25.50;99.90;;;;;;4902157;29;20044;-83
2022/08/19 11:38:48;;;;;;;21.15;16.80;;;25.60;99.90;;;;;;4886335;29;20051;-83
2022/08/19 11:41:15;;;;;;;18.30;14.43;;;25.60;99.90;;;;;;4902014;29;20441;-84
2022/08/19 11:43:41;;;;;;;18.65;12.88;;;25.80;99.90;;;;;;4919168;29;20036;-86
2022/08/19 11:46:10;;;;;;;18.17;13.32;;;25.90;99.90;;;;;;4919099;29;20492;-84
2022/08/19 11:48:36;;;;;;;20.80;16.13;;;25.80;99.90;;;;;;4901658;29;20076;-86
2022/08/19 11:51:12;;;;;;;19.67;15.25;;;25.60;99.90;;;;;;4902425;29;20392;-83
2022/08/19 11:53:38;;;;;;;17.55;13.95;;;25.50;99.90;;;;;;4902112;29;20044;-86
2022/08/19 11:56:06;;;;;;;15.88;12.68;;;25.60;99.90;;;;;;4919085;29;20408;-85
2022/08/19 11:58:32;;;;;;;24.23;17.10;;;25.80;99.90;;;;;;4919141;29;20048;-85
2022/08/19 12:00:58;;;;;;;24.17;19.13;;;25.50;99.90;;;;;;4886191;29;20080;-85
2022/08/19 12:03:25;;;;;;;19.88;15.70;;;25.40;99.90;;;;;;4901986;29;20056;-85
2022/08/19 12:05:51;;;;;;;20.27;16.70;;;25.30;99.90;;;;;;4917718;29;20036;-83
2022/08/19 12:08:17;;;;;;;22.13;16.65;;;25.30;99.90;;;;;;4901882;29;20048;-83
2022/08/19 12:10:45;;;;;;;19.38;15.05;;;25.40;99.90;;;;;;4918738;29;20386;-84
2022/08/19 12:13:13;;;;;;;20.83;14.57;;;25.40;99.90;;;;;;4918889;29;20086;-86
2022/08/19 12:15:40;;;;;;;20.88;16.20;;;25.50;99.90;;;;;;4918580;29;20040;-83
2022/08/19 12:18:08;;;;;;;24.05;17.30;;;25.50;99.90;;;;;;4885633;29;20048;-85
2022/08/19 12:20:39;;;;;;;22.73;17.52;;;25.50;99.90;;;;;;4901894;29;20131;-84
2022/08/19 12:23:06;;;;;;;26.73;18.98;;;25.40;99.90;;;;;;4901297;29;20046;-85
2022/08/19 12:25:34;;;;;;;30.67;19.30;;;25.50;99.90;;;;;;4901274;29;20404;-85
2022/08/19 12:28:00;;;;;;;28.65;20.08;;;25.70;99.90;;;;;;4885770;29;20044;-85
2022/08/19 12:30:26;;;;;;;26.67;20.33;;;25.80;99.90;;;;;;4918177;29;20040;-83
2022/08/19 12:32:52;;;;;;;26.50;19.02;;;25.90;99.90;;;;;;4918337;29;20072;-84
2022/08/19 12:35:19;;;;;;;24.77;18.67;;;26.00;99.90;;;;;;4901213;29;20066;-84
2022/08/19 12:37:47;;;;;;;22.00;17.42;;;26.00;99.90;;;;;;4918626;29;20043;-86
2022/08/19 12:40:13;;;;;;;20.58;15.25;;;25.90;99.90;;;;;;4900975;29;20350;-84
2022/08/19 12:42:43;;;;;;;27.17;18.27;;;26.00;99.90;;;;;;4885227;29;20039;-86
2022/08/19 12:45:13;;;;;;;28.90;20.05;;;26.00;99.90;;;;;;4900875;29;20536;-86
2022/08/19 12:47:39;;;;;;;26.17;19.75;;;26.10;99.90;;;;;;4917653;29;20480;-86
2022/08/19 12:50:09;;;;;;;29.27;19.83;;;26.10;99.90;;;;;;4901652;29;20048;-86
2022/08/19 12:52:36;;;;;;;27.73;20.63;;;26.10;99.90;;;;;;4918056;29;20040;-86
2022/08/19 12:55:04;;;;;;;26.25;20.20;;;26.00;99.90;;;;;;4900755;29;20055;-86
2022/08/19 12:57:32;;;;;;;26.65;19.40;;;25.70;99.90;;;;;;4918143;29;20036;-84
2022/08/19 13:00:18;;;;;;;31.02;20.30;;;25.50;99.90;;;;;;4917726;29;20052;-85
2022/08/19 13:02:46;;;;;;;29.50;20.10;;;25.40;99.90;;;;;;4901432;29;20067;-85
2022/08/19 13:05:15;;;;;;;24.42;18.88;;;25.30;99.90;;;;;;4900918;29;20044;-84
2022/08/19 13:07:43;;;;;;;21.42;17.15;;;25.30;99.90;;;;;;4917689;29;20083;-85
2022/08/19 13:10:11;;;;;;;22.10;16.33;;;25.30;99.90;;;;;;4917532;29;20511;-83
2022/08/19 13:12:38;;;;;;;20.70;15.13;;;25.20;99.90;;;;;;4900831;29;20048;-86
2022/08/19 13:15:05;;;;;;;23.25;16.65;;;25.10;99.90;;;;;;4900797;29;20040;-88
2022/08/19 13:17:30;;;;;;;24.25;19.48;;;24.90;99.90;;;;;;4917438;29;20048;-83
2022/08/19 13:19:56;;;;;;;27.13;17.55;;;24.70;99.90;;;;;;4900373;29;20051;-84
2022/08/19 13:22:21;;;;;;;25.67;18.38;;;24.70;99.90;;;;;;4917525;29;20127;-84
2022/08/19 13:24:48;;;;;;;29.17;19.27;;;24.60;99.90;;;;;;4900948;29;20051;-83
2022/08/19 13:27:14;;;;;;;28.45;21.27;;;24.50;99.90;;;;;;4900549;29;20500;-83
2022/08/19 13:35:10;;;;;;;28.55;19.05;;;24.10;99.90;;;;;;4900640;29;20055;-82
2022/08/19 13:37:41;;;;;;;33.58;19.27;;;24.00;99.90;;;;;;4900575;29;20391;-84
2022/08/19 13:40:14;;;;;;;31.15;19.02;;;24.00;99.90;;;;;;4900991;29;20432;-83
2022/08/19 13:42:42;;;;;;;21.73;17.38;;;24.00;99.90;;;;;;4901119;29;20066;-83
2022/08/19 13:45:08;;;;;;;25.48;17.58;;;24.20;99.90;;;;;;4917116;29;20051;-85
2022/08/19 13:47:34;;;;;;;27.70;19.15;;;24.40;99.90;;;;;;4917318;29;20052;-82
2022/08/19 13:50:04;;;;;;;27.58;17.85;;;24.50;99.90;;;;;;4917279;29;20048;-84
2022/08/19 13:52:30;;;;;;;26.00;18.55;;;24.40;99.90;;;;;;4900372;29;20519;-83
2022/08/19 13:54:56;;;;;;;30.13;20.73;;;24.30;99.90;;;;;;4918101;29;20044;-82
2022/08/19 13:57:22;;;;;;;27.73;18.00;;;24.20;99.90;;;;;;4900339;29;20059;-82
2022/08/19 13:59:48;;;;;;;27.58;20.60;;;24.10;99.90;;;;;;4917093;29;20448;-82
2022/08/19 14:02:14;;;;;;;28.63;19.58;;;24.00;99.90;;;;;;4899951;29;20056;-82
2022/08/19 14:04:40;;;;;;;25.42;18.63;;;23.90;99.90;;;;;;4900162;29;20090;-83
2022/08/19 14:07:05;;;;;;;25.30;15.95;;;23.90;99.90;;;;;;4884604;29;20087;-83
2022/08/19 14:09:31;;;;;;;20.67;13.85;;;23.70;99.90;;;;;;4899863;29;20041;-82
2022/08/19 14:11:57;;;;;;;20.05;13.90;;;23.60;99.90;;;;;;4900120;29;20086;-83
2022/08/19 14:14:22;;;;;;;21.27;13.93;;;23.60;99.90;;;;;;4900272;29;20048;-82
2022/08/19 14:16:49;;;;;;;19.77;13.45;;;23.60;99.90;;;;;;4917765;29;20036;-85
2022/08/19 14:19:15;;;;;;;18.98;12.45;;;23.50;99.90;;;;;;4917264;29;20043;-82
2022/08/19 14:21:41;;;;;;;21.40;12.90;;;23.60;99.90;;;;;;4900255;29;20437;-83
2022/08/19 14:24:07;;;;;;;16.23;11.10;;;23.70;99.90;;;;;;4900089;29;20047;-84
2022/08/19 14:26:32;;;;;;;18.08;11.50;;;23.90;99.90;;;;;;4900368;29;20420;-84
2022/08/19 14:28:58;;;;;;;18.05;11.40;;;23.90;99.90;;;;;;4886024;29;20168;-85
2022/08/19 14:31:25;;;;;;;19.58;12.02;;;23.90;99.90;;;;;;4903882;29;20507;-84
2022/08/19 14:33:51;;;;;;;17.95;11.85;;;23.90;99.90;;;;;;4904062;29;20051;-84
2022/08/19 14:36:18;;;;;;;19.83;13.55;;;23.90;99.90;;;;;;4920515;29;20393;-84
2022/08/19 14:38:44;;;;;;;18.92;13.07;;;23.90;99.90;;;;;;4903525;29;20063;-84
2022/08/19 14:41:16;;;;;;;23.88;15.40;;;23.90;99.90;;;;;;4903041;29;20052;-84
2022/08/19 14:43:42;;;;;;;16.98;12.20;;;23.90;99.90;;;;;;4920584;29;20408;-84
2022/08/19 14:46:10;;;;;;;13.32;8.88;;;23.90;99.90;;;;;;4903021;29;20035;-85
2022/08/19 14:48:38;;;;;;;12.90;8.73;;;23.90;99.90;;;;;;4919885;29;20052;-83
2022/08/19 14:51:04;;;;;;;16.67;11.20;;;24.00;99.90;;;;;;4920565;29;20166;-85
2022/08/19 14:53:29;;;;;;;18.10;12.65;;;24.20;99.90;;;;;;4903464;29;20425;-85
2022/08/19 14:55:55;;;;;;;16.90;12.27;;;24.30;99.90;;;;;;4902715;29;20102;-83
2022/08/19 14:58:22;;;;;;;18.98;12.05;;;24.30;99.90;;;;;;4920056;29;20055;-82
2022/08/19 15:00:48;;;;;;;18.42;13.25;;;24.30;99.90;;;;;;4902566;29;20503;-82
2022/08/19 15:03:13;;;;;;;17.80;12.65;;;24.10;99.90;;;;;;4903320;29;20044;-85
2022/08/19 15:05:39;;;;;;;19.52;12.45;;;24.00;99.90;;;;;;4903758;29;20060;-86
2022/08/19 15:08:05;;;;;;;17.40;11.43;;;24.00;99.90;;;;;;4920112;29;20111;-84
2022/08/19 15:10:31;;;;;;;15.05;10.82;;;23.90;99.90;;;;;;4902567;29;20051;-82
2022/08/19 15:12:56;;;;;;;14.73;8.55;;;23.80;99.90;;;;;;4903153;29;20127;-83
2022/08/19 15:15:22;;;;;;;14.98;8.90;;;23.80;99.90;;;;;;4886891;29;20480;-83
2022/08/19 15:17:49;;;;;;;15.90;9.80;;;23.70;99.90;;;;;;4919367;29;20044;-83
2022/08/19 15:20:17;;;;;;;15.63;10.20;;;23.70;99.90;;;;;;4887201;29;20405;-84
2022/08/19 15:22:44;;;;;;;17.23;11.00;;;23.70;99.90;;;;;;4902540;29;20402;-82
2022/08/19 15:25:12;;;;;;;14.45;10.32;;;23.60;99.90;;;;;;4920567;29;20123;-84
2022/08/19 15:27:39;;;;;;;14.00;10.25;;;23.60;99.90;;;;;;4919640;29;20071;-84
2022/08/19 15:30:08;;;;;;;18.63;10.75;;;23.60;99.90;;;;;;4902559;29;20048;-87
2022/08/19 15:32:34;;;;;;;16.67;10.52;;;23.50;99.90;;;;;;4919608;29;20048;-84
2022/08/19 15:35:02;;;;;;;17.75;11.45;;;23.60;99.90;;;;;;4902103;29;20536;-84
2022/08/19 15:37:28;;;;;;;17.08;10.00;;;23.60;99.90;;;;;;4919796;29;20043;-84
2022/08/19 15:39:53;;;;;;;17.20;11.18;;;23.60;99.90;;;;;;4919377;29;20400;-83
2022/08/19 15:42:19;;;;;;;16.27;11.65;;;23.70;99.90;;;;;;4902808;29;20378;-84
2022/08/19 15:44:46;;;;;;;18.52;12.55;;;23.70;99.90;;;;;;4902719;29;20374;-84
2022/08/19 15:47:12;;;;;;;19.58;11.70;;;23.70;99.90;;;;;;4902689;29;20058;-82
2022/08/19 15:49:38;;;;;;;18.52;11.68;;;23.70;99.90;;;;;;4919304;29;20123;-85
2022/08/19 15:52:06;;;;;;;15.45;11.85;;;23.80;99.90;;;;;;4887311;29;20099;-85
2022/08/19 15:54:32;;;;;;;18.13;12.73;;;23.80;99.90;;;;;;4902312;29;20040;-84
2022/08/19 16:07:58;;;;;;;19.45;13.20;;;23.70;99.90;;;;;;4901459;29;20044;-84
2022/08/19 16:10:24;;;;;;;19.77;12.60;;;23.60;99.90;;;;;;4901446;29;20040;-82